Главная страница
METAR-TAF:

METAR-TAF

Аэропорты :

Киркенес, Норвегия

широта: 69-44N, долгота: 029-54E, высота над уровнем моря: 9 м

Текущие метеонаблюдения

Эта сводка был подготовлена 31 минут назад, в 02:20 UTC
Ветер 6 Узел от северо-восточный, изменяющийся между северо-северо-восточный и восточный
Температура 7°C
Влажность 100%
Давление 995 hPa
Видимость: 7000 м
небольшой дождь

METAR: ENKR 210220Z AUTO 05006KT 020V080 7000 -RA BKN002/// OVC004/// 07/07 Q0995 RMK WIND 731FT 05012KT

Время: 04:51 (02:51 UTC)

Прогноз

Эта сводка был подготовлена 51 минут назад, в 02:00 UTC
Прогноз действительный с 21-го 03 UTC до 21-го 12 UTC
Ветер 8 Узел от северо-северо-восточный
Видимость: 8000 м
Отдельные облака на высоте 200 фута
Рассеянная облачность на высоте 600 фута
небольшой дождь
Вероятность 40%
С 21-го 03 UTC до 21-го 12 UTC
Видимость: 0500 м
на высоте 100 фута
дождь, Морось, туман

TAF: ENKR 210200Z 2103/2112 03008KT 8000 -RA SCT002 BKN006 PROB40 2103/2112 0500 RADZ FG VV001

Метеонаблюдения и прогнозы для более 4000 аэропортов (сводки METAR и TAF).

Имеющиеся станции представлены на карте желтыми и красными точками.

Чтобы увидеть название станции, наведите на нее мышь.

Затем щелкните, чтобы увидеть метеонаблюдения и метеопрогнозы.

Управление картой: чтобы увеличить масштаб, щелкните зеленые кнопки с черным крестиком; чтобы уменьшить масштаб, щелкните зеленую кнопку с тире; для просмотра соседних карт щелкайте зеленые стрелки.


METAR-TAF: